メインページ
METAR-TAF:

METAR-TAF

空港 :

ロスモチス, メキシコ

緯度: 25-41N, 経度: 109-05W, 海抜: 4m

現時点の気象観測

当レポートは1時間15分前の04:40(UTC)に作成
の風 3kt
気温 18°C
湿度 77%
気圧 1017 hPa
視程: 16.1km
高度22000ftの雲は散在している

METAR: MMLM 210440Z 35003KT 10SM SCT220 18/14 A3003 RMK 8/002

時間: 22:55 (05:55 UTC)

予報

当レポートは1時間4分前の04:51(UTC)に作成
予報は21日の 06時(UTC)から 22日の 06時(UTC)まで有効
西の風 4kt
視程: 10km
高度22000ftの雲は散在している
21日の 1800時(UTC)から
南西の風 12kt
視程: 10km
高度9000ftの雲は散在している
高度22000ftの千切れ雲あり
22日の 03時(UTC)から 22日の 05時(UTC)まで徐々に
西/南西の風 5kt
高度23000ftの雲は散在している

TAF: MMLM 210451Z 2106/2206 27004KT P6SM SCT220 FM211800 22012KT P6SM SCT090 BKN220 BECMG 2203/2205 25005KT SCT230

4,000以上の空港の気象観測と天気予報(METAR報とTAF報)

利用可能な観測所は地図上に黄色い丸と赤い丸で示す。

丸の上にカーソルを重ねると観測所名を参照できる。

次にクリックすると気象観測と天気予報を参照できる。

マップの切り替え:黒色「×」印の緑ボタンをクリックして拡大、「-」印の緑ボタンをクリックして縮小、緑色の三角印をクリックして隣りの地図に切り替え


METAR-TAF: